Time;durP1;ratioP1;P1;durP2;ratioP2;P2;SDS_P1;SDS_P2;PMS_P1;PMS_P2;Temp;Humidity;BMP_temperature;BMP_pressure;BME280_temperature;BME280_humidity;BME280_pressure;Samples;Min_cycle;Max_cycle;Signal;HPM_P1;HPM_P2
2023/01/16 00:07:27;;;;;;;2.85;0.80;;;;;;;;;;21008363;28;20051;-59
2023/01/16 00:17:28;;;;;;;1.52;0.60;;;;;;;;;;21006578;28;20447;-64
2023/01/16 00:27:29;;;;;;;2.53;0.32;;;;;;;;;;21006572;28;20048;-68
2023/01/16 00:37:31;;;;;;;5.18;0.98;;;;;;;;;;21006047;28;20053;-60
2023/01/16 00:47:32;;;;;;;2.20;0.50;;;;;;;;;;21004931;28;20175;-65
2023/01/16 00:57:33;;;;;;;3.22;0.45;;;;;;;;;;21004430;28;20056;-68
2023/01/16 01:07:34;;;;;;;1.20;0.38;;;;;;;;;;21003673;28;20044;-62
2023/01/16 01:17:35;;;;;;;1.75;0.40;;;;;;;;;;21002991;28;20132;-60
2023/01/16 01:27:36;;;;;;;5.78;0.60;;;;;;;;;;21004054;28;20040;-75
2023/01/16 01:37:38;;;;;;;4.38;0.80;;;;;;;;;;21010154;28;20143;-72
2023/01/16 01:47:43;;;;;;;2.50;0.85;;;;;;;;;;21001879;28;20078;-73
2023/01/16 01:57:48;;;;;;;2.63;0.75;;;;;;;;;;20999687;28;20052;-71
2023/01/16 02:07:50;;;;;;;2.78;1.00;;;;;;;;;;20998632;28;20041;-61
2023/01/16 02:28:28;;;;;;;3.00;1.15;;;;;;;;;;20997774;28;20048;-60
2023/01/16 02:38:46;;;;;;;2.75;1.02;;;;;;;;;;20996494;28;20052;-65
2023/01/16 02:48:59;;;;;;;5.35;1.00;;;;;;;;;;20995398;28;20386;-68
2023/01/16 02:59:05;;;;;;;1.40;0.70;;;;;;;;;;20995802;28;20060;-69
2023/01/16 03:09:23;;;;;;;2.22;0.60;;;;;;;;;;20995426;28;20049;-66
2023/01/16 03:19:30;;;;;;;;;;;;;;;;;;20996033;28;20049;-69
2023/01/16 03:29:56;;;;;;;2.13;0.73;;;;;;;;;;20994558;28;20328;-67
2023/01/16 03:40:19;;;;;;;3.22;0.70;;;;;;;;;;20994042;28;20061;-68
2023/01/16 03:50:42;;;;;;;3.15;0.60;;;;;;;;;;20993784;28;20044;-66
2023/01/16 04:01:09;;;;;;;10.63;4.38;;;;;;;;;;21000764;28;20140;-59
2023/01/16 04:11:13;;;;;;;3.05;0.70;;;;;;;;;;21009478;28;20044;-59
2023/01/16 04:21:15;;;;;;;4.50;0.60;;;;;;;;;;21007504;28;20048;-65
2023/01/16 04:31:20;;;;;;;3.63;0.73;;;;;;;;;;21005959;28;20045;-72
2023/01/16 04:41:38;;;;;;;6.38;1.10;;;;;;;;;;21004822;28;20060;-71
2023/01/16 04:51:59;;;;;;;3.83;0.52;;;;;;;;;;21004776;28;20060;-64
2023/01/16 05:02:01;;;;;;;1.85;0.47;;;;;;;;;;21004974;28;20044;-67
2023/01/16 05:12:03;;;;;;;2.72;0.65;;;;;;;;;;21004122;28;20045;-70
2023/01/16 05:22:06;;;;;;;4.80;0.90;;;;;;;;;;21002735;28;20139;-72
2023/01/16 05:32:08;;;;;;;3.67;0.80;;;;;;;;;;21001682;28;20045;-74
2023/01/16 05:42:20;;;;;;;3.60;1.30;;;;;;;;;;21000300;28;20062;-73
2023/01/16 05:52:23;;;;;;;2.58;0.50;;;;;;;;;;21000016;28;20057;-70
2023/01/16 06:02:25;;;;;;;7.13;0.80;;;;;;;;;;20998943;28;20056;-70
2023/01/16 06:12:28;;;;;;;2.95;0.73;;;;;;;;;;20998610;28;20416;-70
2023/01/16 06:22:29;;;;;;;4.47;0.75;;;;;;;;;;20996293;28;20477;-66
2023/01/16 06:32:31;;;;;;;3.03;0.40;;;;;;;;;;20996623;28;20052;-72
2023/01/16 06:42:33;;;;;;;1.30;0.32;;;;;;;;;;20996852;28;20052;-59
2023/01/16 06:52:39;;;;;;;3.15;0.35;;;;;;;;;;20996735;28;20454;-58
2023/01/16 07:02:41;;;;;;;7.32;0.95;;;;;;;;;;20996355;28;20052;-60
2023/01/16 07:12:43;;;;;;;3.30;0.90;;;;;;;;;;20995441;28;20106;-68
2023/01/16 07:22:46;;;;;;;4.35;0.90;;;;;;;;;;20995239;28;20049;-61
2023/01/16 07:32:48;;;;;;;9.32;0.95;;;;;;;;;;20999460;28;20048;-71
2023/01/16 07:42:51;;;;;;;4.35;1.13;;;;;;;;;;21009806;28;20059;-58
2023/01/16 07:52:53;;;;;;;2.60;0.70;;;;;;;;;;21009299;28;20052;-60
2023/01/16 08:02:55;;;;;;;4.75;0.90;;;;;;;;;;21008441;28;20055;-61
2023/01/16 08:12:56;;;;;;;3.35;0.75;;;;;;;;;;21007000;28;20059;-58
2023/01/16 08:23:00;;;;;;;4.32;1.00;;;;;;;;;;21006085;28;20052;-73
2023/01/16 08:33:02;;;;;;;3.15;0.80;;;;;;;;;;21006331;28;20045;-71
2023/01/16 08:53:25;;;;;;;3.60;0.80;;;;;;;;;;21004803;28;20178;-60
2023/01/16 09:03:27;;;;;;;5.60;0.73;;;;;;;;;;21004336;28;20055;-59
2023/01/16 09:23:49;;;;;;;3.95;1.33;;;;;;;;;;21001700;28;20424;-57
2023/01/16 09:33:52;;;;;;;1.50;0.55;;;;;;;;;;21000606;28;20048;-60
2023/01/16 09:43:54;;;;;;;4.47;0.60;;;;;;;;;;21000124;28;20063;-58
2023/01/16 10:04:16;;;;;;;;;;;;;;;;;;21000133;28;20053;-57
2023/01/16 10:14:21;;;;;;;3.33;0.80;;;;;;;;;;21002259;28;19921;-76
2023/01/16 10:24:43;;;;;;;5.15;0.77;;;;;;;;;;20997138;28;20089;-59
2023/01/16 10:34:48;;;;;;;1.48;0.50;;;;;;;;;;20996556;28;20044;-58
2023/01/16 10:55:26;;;;;;;5.07;0.90;;;;;;;;;;20997924;28;20048;-60
2023/01/16 11:05:28;;;;;;;1.35;0.30;;;;;;;;;;20997635;28;20056;-62
2023/01/16 11:25:52;;;;;;;0.82;0.45;;;;;;;;;;21010780;28;20051;-67
2023/01/16 11:35:56;;;;;;;1.17;0.30;;;;;;;;;;21010654;28;20071;-58
2023/01/16 11:46:06;;;;;;;1.55;0.40;;;;;;;;;;21009692;28;20052;-69
2023/01/16 11:56:18;;;;;;;2.35;0.50;;;;;;;;;;21008714;28;20054;-66
2023/01/16 12:06:40;;;;;;;2.72;0.50;;;;;;;;;;21009184;28;20054;-67
2023/01/16 12:16:51;;;;;;;1.92;0.70;;;;;;;;;;21007033;28;20094;-66
2023/01/16 12:26:58;;;;;;;5.50;1.23;;;;;;;;;;21008364;28;20084;-65
2023/01/16 12:37:00;;;;;;;3.13;0.68;;;;;;;;;;21016227;28;20048;-74
2023/01/16 12:47:18;;;;;;;5.00;0.93;;;;;;;;;;21016507;28;20052;-77
2023/01/16 12:57:38;;;;;;;1.45;0.52;;;;;;;;;;21009750;28;20044;-68
2023/01/16 13:07:49;;;;;;;3.90;0.80;;;;;;;;;;21005036;28;20113;-72
2023/01/16 13:17:55;;;;;;;5.03;0.70;;;;;;;;;;21002395;28;20485;-71
2023/01/16 13:27:59;;;;;;;3.05;0.57;;;;;;;;;;21001940;28;20056;-68
2023/01/16 13:38:20;;;;;;;5.05;0.88;;;;;;;;;;21000191;28;20061;-72
2023/01/16 13:48:31;;;;;;;8.00;0.70;;;;;;;;;;20999801;28;20570;-71
2023/01/16 13:58:38;;;;;;;4.97;1.13;;;;;;;;;;20998626;28;20067;-71
2023/01/16 14:09:06;;;;;;;4.82;0.98;;;;;;;;;;20998334;28;20496;-71
2023/01/16 14:19:16;;;;;;;5.82;0.85;;;;;;;;;;20997490;28;20056;-71
2023/01/16 14:29:28;;;;;;;4.40;0.98;;;;;;;;;;20998153;28;20460;-69
2023/01/16 14:39:31;;;;;;;7.32;1.23;;;;;;;;;;20995757;28;20094;-70
2023/01/16 15:00:12;;;;;;;5.07;1.13;;;;;;;;;;20997210;28;20389;-71
2023/01/16 15:10:14;;;;;;;7.75;2.67;;;;;;;;;;20996738;28;20139;-72
2023/01/16 15:30:42;;;;;;;4.95;1.17;;;;;;;;;;20995873;28;20477;-71
2023/01/16 15:40:50;;;;;;;5.15;0.90;;;;;;;;;;20998472;28;20060;-68
2023/01/16 15:50:59;;;;;;;4.70;0.93;;;;;;;;;;20994256;28;20052;-69
2023/01/16 16:01:03;;;;;;;4.00;0.70;;;;;;;;;;21009145;28;20052;-69
2023/01/16 16:21:31;;;;;;;3.15;0.43;;;;;;;;;;21006712;28;20048;-69
2023/01/16 16:31:36;;;;;;;2.22;0.47;;;;;;;;;;21006555;28;20048;-70
2023/01/16 16:52:22;;;;;;;3.03;0.70;;;;;;;;;;21005521;28;20405;-69
2023/01/16 17:02:24;;;;;;;12.88;6.32;;;;;;;;;;21002951;28;20206;-68
2023/01/16 17:12:27;;;;;;;3.03;0.50;;;;;;;;;;21003215;28;20170;-69
2023/01/16 17:22:29;;;;;;;1.25;0.32;;;;;;;;;;21001773;28;20048;-68
2023/01/16 17:32:31;;;;;;;1.05;0.40;;;;;;;;;;21001563;28;20508;-71
2023/01/16 17:52:54;;;;;;;3.03;0.40;;;;;;;;;;21002543;28;20048;-73
2023/01/16 18:02:56;;;;;;;1.23;0.40;;;;;;;;;;20999734;28;20055;-68
2023/01/16 18:23:18;;;;;;;1.90;0.45;;;;;;;;;;20997883;28;20053;-69
2023/01/16 18:33:20;;;;;;;4.38;0.70;;;;;;;;;;20997635;28;20045;-67
2023/01/16 19:04:05;;;;;;;3.95;1.23;;;;;;;;;;20995619;28;20056;-69
2023/01/16 19:14:07;;;;;;;1.40;0.30;;;;;;;;;;20996086;28;20048;-69
2023/01/16 19:24:09;;;;;;;2.50;0.50;;;;;;;;;;20994885;28;20056;-71
2023/01/16 19:34:12;;;;;;;0.60;0.32;;;;;;;;;;21008988;28;20060;-70
2023/01/16 19:54:34;;;;;;;2.20;0.47;;;;;;;;;;21010560;28;20053;-67
2023/01/16 20:04:38;;;;;;;3.03;0.45;;;;;;;;;;21009385;28;20412;-73
2023/01/16 20:14:39;;;;;;;1.73;0.47;;;;;;;;;;21008640;28;20051;-69
2023/01/16 20:24:41;;;;;;;3.53;1.13;;;;;;;;;;21007465;28;20048;-71
2023/01/16 20:34:44;;;;;;;1.10;0.40;;;;;;;;;;21006494;28;20045;-68
2023/01/16 20:55:12;;;;;;;2.30;0.45;;;;;;;;;;21005045;28;20091;-73
2023/01/16 21:05:13;;;;;;;4.32;1.88;;;;;;;;;;21004168;28;20128;-70
2023/01/16 21:15:15;;;;;;;2.47;0.22;;;;;;;;;;21004484;28;20071;-72
2023/01/16 21:25:21;;;;;;;3.78;0.50;;;;;;;;;;21002482;28;20055;-72
2023/01/16 21:35:23;;;;;;;1.58;0.32;;;;;;;;;;21000299;28;20044;-71
2023/01/16 21:55:46;;;;;;;2.17;0.43;;;;;;;;;;20999870;28;20511;-71
2023/01/16 22:05:48;;;;;;;1.70;0.30;;;;;;;;;;20999401;28;20052;-72
2023/01/16 22:26:11;;;;;;;0.55;0.20;;;;;;;;;;21016314;28;20056;-71
2023/01/16 22:36:13;;;;;;;5.20;0.50;;;;;;;;;;20998156;28;20083;-72
2023/01/16 22:46:21;;;;;;;0.47;0.20;;;;;;;;;;20997522;28;20091;-69
2023/01/16 22:56:23;;;;;;;3.35;0.63;;;;;;;;;;20996829;28;20055;-72
2023/01/16 23:06:26;;;;;;;2.25;0.28;;;;;;;;;;20996193;28;20048;-71
2023/01/16 23:16:29;;;;;;;2.88;0.43;;;;;;;;;;20995733;28;20045;-71
2023/01/16 23:26:31;;;;;;;1.52;0.30;;;;;;;;;;20995080;28;20048;-71
2023/01/16 23:36:34;;;;;;;0.80;0.20;;;;;;;;;;20994326;28;20139;-70
2023/01/16 23:46:35;;;;;;;0.55;0.40;;;;;;;;;;20994052;28;20052;-71
2023/01/16 23:56:37;;;;;;;1.23;0.20;;;;;;;;;;20994995;28;20051;-70
